Time;durP1;ratioP1;P1;durP2;ratioP2;P2;SDS_P1;SDS_P2;PMS_P1;PMS_P2;Temp;Humidity;BMP_temperature;BMP_pressure;BME280_temperature;BME280_humidity;BME280_pressure;Samples;Min_cycle;Max_cycle;Signal;HPM_P1;HPM_P2
2024/02/15 00:02:16;;;;;;;522.90;489.83;;;14.30;99.90;;;;;;5033209;28;20042;-87
2024/02/15 00:04:42;;;;;;;518.70;487.13;;;14.30;99.90;;;;;;5034399;28;20036;-87
2024/02/15 00:07:08;;;;;;;490.13;460.38;;;14.30;99.90;;;;;;5034208;28;20685;-87
2024/02/15 00:09:34;;;;;;;513.53;482.35;;;14.30;99.90;;;;;;5033903;28;20033;-87
2024/02/15 00:12:00;;;;;;;518.55;486.50;;;14.30;99.90;;;;;;5033265;28;20505;-87
2024/02/15 00:14:28;;;;;;;506.75;476.30;;;14.40;99.90;;;;;;5033949;28;20040;-87
2024/02/15 00:16:54;;;;;;;505.85;475.23;;;14.40;99.90;;;;;;5033216;28;20517;-88
2024/02/15 00:19:21;;;;;;;490.80;461.42;;;14.30;99.90;;;;;;5032981;28;20029;-87
2024/02/15 00:21:47;;;;;;;504.80;474.20;;;14.30;99.90;;;;;;5032822;28;20040;-88
2024/02/15 00:24:14;;;;;;;516.55;484.95;;;14.30;99.90;;;;;;5033776;28;20057;-87
2024/02/15 00:26:42;;;;;;;466.48;438.73;;;14.20;99.90;;;;;;5033344;28;20359;-88
2024/02/15 00:29:09;;;;;;;397.67;374.63;;;14.10;99.90;;;;;;5033036;28;20029;-87
2024/02/15 00:31:35;;;;;;;377.33;355.83;;;13.90;99.90;;;;;;5036752;28;20033;-87
2024/02/15 00:34:05;;;;;;;367.50;346.65;;;13.70;99.90;;;;;;5052331;28;20025;-88
2024/02/15 00:36:35;;;;;;;390.08;367.60;;;13.70;99.90;;;;;;5032146;28;20045;-88
2024/02/15 00:39:01;;;;;;;423.52;398.55;;;13.60;99.90;;;;;;5033598;28;20343;-87
2024/02/15 00:41:27;;;;;;;409.58;385.08;;;13.60;99.90;;;;;;5027702;28;20444;-88
2024/02/15 00:43:53;;;;;;;380.13;357.67;;;13.60;99.90;;;;;;5033847;28;20056;-87
2024/02/15 00:46:19;;;;;;;450.60;422.27;;;13.60;99.90;;;;;;5033346;28;20041;-87
2024/02/15 00:48:46;;;;;;;520.28;486.58;;;13.70;99.90;;;;;;5034048;28;20477;-88
2024/02/15 00:51:12;;;;;;;564.60;526.95;;;13.60;99.90;;;;;;5033622;28;20037;-87
2024/02/15 00:53:38;;;;;;;527.25;492.55;;;13.50;99.90;;;;;;5033321;28;20033;-88
2024/02/15 00:56:05;;;;;;;343.83;324.35;;;13.50;99.90;;;;;;5033697;28;20033;-88
2024/02/15 00:58:31;;;;;;;514.03;480.45;;;13.50;99.90;;;;;;5033839;28;20045;-88
2024/02/15 01:00:57;;;;;;;492.95;460.90;;;13.40;99.90;;;;;;5032926;28;20391;-88
2024/02/15 01:03:23;;;;;;;432.77;404.55;;;13.60;99.90;;;;;;5033617;28;20048;-88
2024/02/15 01:05:49;;;;;;;407.45;382.38;;;13.50;99.90;;;;;;5032480;28;20356;-87
2024/02/15 01:08:15;;;;;;;424.63;398.15;;;13.50;99.90;;;;;;5033285;28;20037;-88
2024/02/15 01:10:41;;;;;;;429.35;403.08;;;13.40;99.90;;;;;;5031496;28;20386;-88
2024/02/15 01:13:08;;;;;;;528.58;493.33;;;13.40;99.90;;;;;;5033293;28;20048;-89
2024/02/15 01:15:37;;;;;;;532.72;496.98;;;13.40;99.90;;;;;;5032949;28;20041;-88
2024/02/15 01:18:03;;;;;;;530.47;494.38;;;13.30;99.90;;;;;;5033394;28;20374;-88
2024/02/15 01:20:29;;;;;;;372.48;349.90;;;13.20;99.90;;;;;;5035244;28;20037;-88
2024/02/15 01:22:56;;;;;;;351.60;330.52;;;13.10;99.90;;;;;;5043006;28;20495;-88
2024/02/15 01:25:22;;;;;;;422.60;394.88;;;13.10;99.90;;;;;;5044826;28;20393;-89
2024/02/15 01:27:48;;;;;;;467.17;435.40;;;13.10;99.90;;;;;;5044072;28;20029;-89
2024/02/15 01:30:14;;;;;;;464.48;433.02;;;13.10;99.90;;;;;;5043756;28;20030;-88
2024/02/15 01:32:42;;;;;;;413.98;387.92;;;13.10;99.90;;;;;;5041060;28;20037;-88
2024/02/15 01:35:09;;;;;;;376.35;353.27;;;13.10;99.90;;;;;;5039635;28;20053;-88
2024/02/15 01:37:36;;;;;;;351.23;329.23;;;13.10;99.90;;;;;;5032823;28;20042;-89
2024/02/15 01:40:06;;;;;;;291.60;273.67;;;13.20;99.90;;;;;;5033298;28;20056;-88
2024/02/15 01:42:32;;;;;;;330.15;310.35;;;13.20;99.90;;;;;;5031305;28;20053;-89
2024/02/15 01:44:58;;;;;;;355.90;335.13;;;13.20;99.90;;;;;;5033180;28;20037;-88
2024/02/15 01:47:24;;;;;;;363.88;343.10;;;13.10;99.90;;;;;;5032371;28;20045;-88
2024/02/15 01:49:52;;;;;;;336.23;317.13;;;13.10;99.90;;;;;;5031664;28;20040;-89
2024/02/15 01:52:18;;;;;;;376.60;354.60;;;13.20;99.90;;;;;;5030999;28;20025;-89
2024/02/15 01:54:45;;;;;;;376.73;354.58;;;13.20;99.90;;;;;;5032842;28;20057;-89
2024/02/15 01:57:11;;;;;;;378.85;357.05;;;13.20;99.90;;;;;;5031345;28;20387;-89
2024/02/15 01:59:37;;;;;;;338.60;319.95;;;13.40;99.90;;;;;;5031046;28;20037;-88
2024/02/15 02:02:03;;;;;;;328.38;310.65;;;13.40;99.90;;;;;;5030583;28;20548;-89
2024/02/15 02:04:31;;;;;;;309.50;292.88;;;13.30;99.90;;;;;;5031248;28;20041;-89
2024/02/15 02:06:58;;;;;;;297.58;281.67;;;13.40;99.90;;;;;;5013832;28;20470;-88
2024/02/15 02:09:24;;;;;;;282.90;267.30;;;13.40;99.90;;;;;;5030844;28;20025;-88
2024/02/15 02:11:50;;;;;;;327.20;308.80;;;13.50;99.90;;;;;;5030400;28;20041;-89
2024/02/15 02:14:17;;;;;;;314.52;297.10;;;13.60;99.90;;;;;;5031770;28;20040;-89
2024/02/15 02:16:43;;;;;;;310.02;292.90;;;13.70;99.90;;;;;;5030203;28;20041;-88
2024/02/15 02:19:09;;;;;;;308.52;291.30;;;13.60;99.90;;;;;;5032120;28;20029;-88
2024/02/15 02:21:36;;;;;;;339.05;320.30;;;13.50;99.90;;;;;;5029792;28;20048;-88
2024/02/15 02:24:11;;;;;;;338.60;319.67;;;13.60;99.90;;;;;;5014477;28;20072;-89
2024/02/15 02:26:37;;;;;;;353.77;333.77;;;13.70;99.90;;;;;;5030722;28;20025;-88
2024/02/15 02:29:04;;;;;;;371.00;348.98;;;13.70;99.90;;;;;;5030936;28;20040;-88
2024/02/15 02:31:37;;;;;;;397.90;373.67;;;13.70;99.90;;;;;;5031020;28;20052;-88
2024/02/15 02:34:03;;;;;;;348.55;328.70;;;13.60;99.90;;;;;;5031625;28;20045;-88
2024/02/15 02:36:29;;;;;;;334.52;315.90;;;13.40;99.90;;;;;;5031582;28;20077;-88
2024/02/15 02:39:00;;;;;;;355.30;334.88;;;13.40;99.90;;;;;;5031789;28;20029;-89
2024/02/15 02:41:29;;;;;;;323.60;305.58;;;13.40;99.90;;;;;;5031430;28;20034;-89
2024/02/15 02:43:56;;;;;;;293.33;277.13;;;13.20;99.90;;;;;;5032261;28;20486;-89
2024/02/15 02:46:22;;;;;;;294.17;277.60;;;13.10;99.90;;;;;;5030727;28;20034;-88
2024/02/15 02:48:48;;;;;;;283.15;267.30;;;13.20;99.90;;;;;;5031644;28;20564;-90
2024/02/15 02:51:15;;;;;;;244.65;230.68;;;13.10;99.90;;;;;;5030563;28;20044;-89
2024/02/15 02:53:41;;;;;;;475.50;445.23;;;13.00;99.90;;;;;;5031504;28;20052;-90
2024/02/15 02:56:10;;;;;;;269.77;254.07;;;13.00;99.90;;;;;;5030265;28;20045;-89
2024/02/15 02:58:36;;;;;;;285.42;268.58;;;12.80;99.90;;;;;;5029965;28;20045;-88
2024/02/15 03:01:02;;;;;;;270.42;254.27;;;12.80;99.90;;;;;;5027976;28;20045;-90
2024/02/15 03:03:29;;;;;;;282.98;266.52;;;12.80;99.90;;;;;;5026137;28;20398;-89
2024/02/15 03:05:55;;;;;;;314.02;295.60;;;12.70;99.90;;;;;;5027446;28;20045;-90
2024/02/15 03:08:22;;;;;;;270.67;254.75;;;12.60;99.90;;;;;;5030350;28;20022;-89
2024/02/15 03:10:48;;;;;;;269.92;254.43;;;12.50;99.90;;;;;;5029351;28;20510;-89
2024/02/15 03:13:14;;;;;;;243.90;230.25;;;12.40;99.90;;;;;;5030456;28;20501;-91
2024/02/15 03:15:41;;;;;;;243.50;229.40;;;12.40;99.90;;;;;;5030069;28;20040;-91
2024/02/15 03:18:08;;;;;;;247.60;233.13;;;12.40;99.90;;;;;;5030090;28;20061;-89
2024/02/15 03:20:36;;;;;;;208.60;196.60;;;12.30;99.90;;;;;;5029569;28;20049;-90
2024/02/15 03:23:02;;;;;;;225.45;212.75;;;12.30;99.90;;;;;;5029623;28;20044;-90
2024/02/15 03:25:29;;;;;;;263.33;247.98;;;12.30;99.90;;;;;;5030615;28;20052;-89
2024/02/15 03:27:56;;;;;;;224.57;211.38;;;12.30;99.90;;;;;;5029949;28;20101;-90
2024/02/15 03:30:26;;;;;;;235.40;222.30;;;12.40;99.90;;;;;;5033391;28;20046;-90
2024/02/15 03:32:53;;;;;;;252.95;238.95;;;12.40;99.90;;;;;;5032470;28;20386;-90
2024/02/15 03:35:20;;;;;;;315.48;297.73;;;12.40;99.90;;;;;;5032430;28;20064;-90
2024/02/15 03:37:51;;;;;;;286.90;270.65;;;12.40;99.90;;;;;;5035314;28;20037;-91
2024/02/15 03:40:21;;;;;;;237.30;224.35;;;12.40;99.90;;;;;;5035195;28;20025;-90
2024/02/15 03:42:47;;;;;;;197.43;186.65;;;12.30;99.90;;;;;;5033813;28;20045;-89
2024/02/15 03:45:13;;;;;;;262.90;247.60;;;12.30;99.90;;;;;;5034562;28;20493;-86
2024/02/15 03:47:39;;;;;;;343.70;322.80;;;12.20;99.90;;;;;;5034959;28;20030;-90
2024/02/15 03:50:09;;;;;;;331.95;311.38;;;12.20;99.90;;;;;;5033722;28;20512;-90
2024/02/15 03:52:36;;;;;;;170.38;160.70;;;12.20;99.90;;;;;;5035593;28;20493;-89
2024/02/15 03:55:02;;;;;;;370.77;347.60;;;12.10;99.90;;;;;;5034937;28;20026;-89
2024/02/15 03:57:28;;;;;;;231.57;218.90;;;12.10;99.90;;;;;;5034676;28;20459;-89
2024/02/15 03:59:56;;;;;;;231.77;218.63;;;12.20;99.90;;;;;;5034371;28;20040;-87
2024/02/15 04:02:26;;;;;;;216.25;203.85;;;12.10;99.90;;;;;;5032083;28;20041;-87
2024/02/15 04:04:54;;;;;;;393.33;369.33;;;12.10;99.90;;;;;;5034159;28;20060;-88
2024/02/15 04:07:21;;;;;;;373.95;350.60;;;12.10;99.90;;;;;;5034213;28;20025;-87
2024/02/15 04:09:48;;;;;;;219.73;207.10;;;12.10;99.90;;;;;;5033216;28;20045;-89
2024/02/15 04:12:14;;;;;;;341.98;321.25;;;12.10;99.90;;;;;;5033940;28;20402;-87
2024/02/15 04:14:41;;;;;;;402.80;378.48;;;12.10;99.90;;;;;;5034295;28;20033;-88
2024/02/15 04:17:07;;;;;;;270.88;255.57;;;12.10;99.90;;;;;;5033000;28;20041;-88
2024/02/15 04:19:33;;;;;;;332.55;312.75;;;12.00;99.90;;;;;;5034670;28;20045;-88
2024/02/15 04:22:07;;;;;;;330.95;312.40;;;12.00;99.90;;;;;;5033128;28;20041;-87
2024/02/15 04:24:34;;;;;;;220.60;208.88;;;12.00;99.90;;;;;;5025409;28;20054;-88
2024/02/15 04:27:00;;;;;;;333.10;314.55;;;12.00;99.90;;;;;;5032150;28;20021;-87
2024/02/15 04:29:26;;;;;;;289.23;273.38;;;12.10;99.90;;;;;;5027571;28;20029;-87
2024/02/15 04:31:54;;;;;;;351.23;331.48;;;12.20;99.90;;;;;;5032905;28;20032;-87
2024/02/15 04:34:20;;;;;;;294.27;277.35;;;12.20;99.90;;;;;;5032556;28;20046;-88
2024/02/15 04:36:50;;;;;;;279.83;264.23;;;12.10;99.90;;;;;;5034614;28;20034;-88
2024/02/15 04:39:24;;;;;;;335.42;316.50;;;12.00;99.90;;;;;;5034734;28;20064;-89
2024/02/15 04:41:51;;;;;;;299.30;282.60;;;12.00;99.90;;;;;;5033082;28;20402;-89
2024/02/15 04:44:20;;;;;;;285.92;268.52;;;12.00;99.90;;;;;;5033974;28;20553;-88
2024/02/15 04:46:51;;;;;;;316.75;298.30;;;12.00;99.90;;;;;;5031025;28;20037;-87
2024/02/15 04:49:18;;;;;;;322.70;303.92;;;12.00;99.90;;;;;;5031955;28;20030;-87
2024/02/15 04:51:44;;;;;;;238.50;224.57;;;12.10;99.90;;;;;;5033403;28;20037;-88
2024/02/15 04:54:13;;;;;;;295.25;277.77;;;12.00;99.90;;;;;;5032805;28;20025;-87
2024/02/15 04:56:42;;;;;;;343.48;323.63;;;12.10;99.90;;;;;;5033221;28;20029;-88
2024/02/15 04:59:15;;;;;;;270.25;253.70;;;12.10;99.90;;;;;;5033033;28;20033;-87
2024/02/15 05:01:45;;;;;;;265.38;250.57;;;12.10;99.90;;;;;;5032572;28;20041;-87
2024/02/15 05:04:11;;;;;;;390.98;367.77;;;12.00;99.90;;;;;;5032607;28;20120;-87
2024/02/15 05:06:38;;;;;;;272.75;256.50;;;12.00;99.90;;;;;;5032930;28;20028;-87
2024/02/15 05:09:07;;;;;;;248.27;233.85;;;12.00;99.90;;;;;;5033063;28;20557;-87
2024/02/15 05:11:36;;;;;;;325.27;306.40;;;12.00;99.90;;;;;;5032625;28;20030;-88
2024/02/15 05:14:07;;;;;;;307.48;290.02;;;11.90;99.90;;;;;;5030677;28;20050;-87
2024/02/15 05:16:33;;;;;;;291.48;274.02;;;11.80;99.90;;;;;;5031562;28;20037;-87
2024/02/15 05:18:59;;;;;;;295.33;277.85;;;11.80;99.90;;;;;;5031639;28;20478;-87
2024/02/15 05:21:25;;;;;;;259.30;244.07;;;11.80;99.90;;;;;;5031998;28;20025;-85
2024/02/15 05:23:52;;;;;;;326.98;307.33;;;11.70;99.90;;;;;;5030585;28;20123;-85
2024/02/15 05:26:23;;;;;;;215.95;202.98;;;11.70;99.90;;;;;;5032868;28;20383;-86
2024/02/15 05:28:49;;;;;;;234.77;220.82;;;11.70;99.90;;;;;;5017886;28;20045;-86
2024/02/15 05:31:17;;;;;;;274.33;258.55;;;11.60;99.90;;;;;;5031330;28;20036;-85
2024/02/15 05:33:44;;;;;;;311.02;292.98;;;11.60;99.90;;;;;;5031591;28;20513;-87
2024/02/15 05:36:11;;;;;;;291.77;274.15;;;11.60;99.90;;;;;;5031669;28;20037;-86
2024/02/15 05:38:38;;;;;;;296.92;278.83;;;11.60;99.90;;;;;;5031638;28;20478;-86
2024/02/15 05:41:04;;;;;;;326.85;307.90;;;11.50;99.90;;;;;;5030705;28;20041;-86
2024/02/15 05:43:31;;;;;;;323.20;304.60;;;11.50;99.90;;;;;;5031631;28;20036;-86
2024/02/15 05:45:59;;;;;;;172.70;162.30;;;11.60;99.90;;;;;;5030784;28;20522;-86
2024/02/15 05:48:27;;;;;;;220.18;207.65;;;11.60;99.90;;;;;;5032397;28;20033;-86
2024/02/15 05:50:55;;;;;;;383.95;360.63;;;11.50;99.90;;;;;;5031826;28;20049;-86
2024/02/15 05:53:21;;;;;;;299.23;281.67;;;11.50;99.90;;;;;;5032138;28;20045;-86
2024/02/15 05:55:49;;;;;;;204.73;192.82;;;11.50;99.90;;;;;;5032100;28;20033;-86
2024/02/15 05:58:16;;;;;;;190.82;180.00;;;11.50;99.90;;;;;;5031343;28;20525;-87
2024/02/15 06:00:44;;;;;;;179.20;168.95;;;11.50;99.90;;;;;;5029737;28;20041;-86
2024/02/15 06:03:13;;;;;;;245.73;231.18;;;11.40;99.90;;;;;;5031610;28;20040;-86
2024/02/15 06:05:40;;;;;;;216.57;203.80;;;11.40;99.90;;;;;;5032021;28;20505;-88
2024/02/15 06:08:06;;;;;;;299.58;281.95;;;11.50;99.90;;;;;;5030614;28;20418;-86
2024/02/15 06:10:32;;;;;;;315.33;296.50;;;11.50;99.90;;;;;;5031701;28;20037;-87
2024/02/15 06:12:59;;;;;;;380.00;357.48;;;11.40;99.90;;;;;;5031061;28;20033;-86
2024/02/15 06:15:26;;;;;;;383.58;359.83;;;11.50;99.90;;;;;;5029451;28;20040;-86
2024/02/15 06:17:52;;;;;;;206.25;194.93;;;11.60;99.90;;;;;;5031764;28;20482;-87
2024/02/15 06:20:19;;;;;;;228.38;214.90;;;11.60;99.90;;;;;;5030422;28;20516;-87
2024/02/15 06:22:46;;;;;;;196.55;185.02;;;11.40;99.90;;;;;;5031702;28;20056;-87
2024/02/15 06:25:20;;;;;;;160.35;151.65;;;11.30;99.90;;;;;;5030192;28;20060;-86
2024/02/15 06:27:46;;;;;;;309.77;291.30;;;11.30;99.90;;;;;;5031068;28;20052;-86
2024/02/15 06:41:12;;;;;;;178.45;168.55;;;11.40;99.90;;;;;;5031464;28;20045;-86
2024/02/15 06:43:39;;;;;;;309.42;291.50;;;11.30;99.90;;;;;;5029846;28;20038;-87
2024/02/15 06:46:10;;;;;;;287.88;271.55;;;11.30;99.90;;;;;;5030414;28;20053;-86
2024/02/15 06:48:36;;;;;;;271.08;256.60;;;11.30;99.90;;;;;;5031832;28;20048;-85
2024/02/15 06:51:03;;;;;;;238.35;225.35;;;11.30;99.90;;;;;;5031715;28;20044;-86
2024/02/15 06:53:30;;;;;;;276.13;260.75;;;11.40;99.90;;;;;;5036263;28;20037;-85
2024/02/15 06:55:56;;;;;;;359.88;339.02;;;11.40;99.90;;;;;;5031280;28;20040;-87
2024/02/15 06:58:22;;;;;;;315.55;297.85;;;11.40;99.90;;;;;;5029198;28;20434;-84
2024/02/15 07:00:50;;;;;;;165.45;156.60;;;11.50;99.90;;;;;;5032126;28;20045;-90
2024/02/15 07:03:16;;;;;;;333.23;313.70;;;11.40;99.90;;;;;;5031876;28;20037;-90
2024/02/15 07:05:43;;;;;;;311.02;293.30;;;11.30;99.90;;;;;;5030700;28;20051;-89
2024/02/15 07:08:10;;;;;;;228.70;216.30;;;11.20;99.90;;;;;;5028657;28;20021;-91
2024/02/15 07:10:39;;;;;;;242.95;229.82;;;11.20;99.90;;;;;;5034258;28;20038;-90
2024/02/15 07:13:06;;;;;;;250.63;236.77;;;11.30;99.90;;;;;;5035168;28;20494;-91
2024/02/15 07:15:37;;;;;;;265.63;251.00;;;11.30;99.90;;;;;;5034315;28;20045;-91
2024/02/15 07:18:05;;;;;;;;;;;11.30;99.90;;;;;;5033171;28;20049;-90
2024/02/15 07:20:33;;;;;;;220.63;208.70;;;11.30;99.90;;;;;;5035607;28;20278;-90
2024/02/15 07:22:59;;;;;;;260.13;245.68;;;11.30;99.90;;;;;;5034510;28;20486;-91
2024/02/15 07:25:25;;;;;;;277.40;262.40;;;11.40;99.90;;;;;;5026834;28;20050;-90
2024/02/15 07:27:52;;;;;;;331.88;313.23;;;11.50;99.90;;;;;;5030660;28;21363;-90
2024/02/15 07:30:18;;;;;;;288.05;271.90;;;11.50;99.90;;;;;;5036215;28;20053;-91
2024/02/15 07:32:45;;;;;;;311.52;294.38;;;11.40;99.90;;;;;;5036447;28;20463;-90
2024/02/15 07:35:11;;;;;;;348.25;327.77;;;11.30;99.90;;;;;;5031130;28;20026;-90
2024/02/15 07:37:39;;;;;;;329.20;310.13;;;11.30;99.90;;;;;;5030854;28;20046;-90
2024/02/15 07:40:08;;;;;;;260.52;245.82;;;11.30;99.90;;;;;;5033782;28;20033;-89
2024/02/15 07:42:34;;;;;;;236.77;224.02;;;11.30;99.90;;;;;;5034612;28;20103;-87
2024/02/15 07:45:01;;;;;;;259.52;244.90;;;11.30;99.90;;;;;;5031398;28;20046;-90
2024/02/15 07:47:29;;;;;;;358.10;337.63;;;11.40;99.90;;;;;;5023771;28;20022;-90
2024/02/15 07:49:55;;;;;;;337.77;318.75;;;11.40;99.90;;;;;;5034578;28;20394;-90
2024/02/15 07:52:22;;;;;;;348.08;328.48;;;11.50;99.90;;;;;;5034296;28;20029;-89
2024/02/15 07:54:48;;;;;;;331.88;313.10;;;11.50;99.90;;;;;;5042539;28;20053;-91
2024/02/15 07:57:14;;;;;;;303.98;287.05;;;11.60;99.90;;;;;;5033835;28;20056;-87
2024/02/15 07:59:42;;;;;;;273.42;258.65;;;11.60;99.90;;;;;;5037273;28;20037;-88
2024/02/15 08:02:08;;;;;;;308.98;291.40;;;11.70;99.90;;;;;;5030457;28;20417;-89
2024/02/15 08:04:40;;;;;;;278.48;262.92;;;11.70;99.90;;;;;;5033608;28;20049;-82
2024/02/15 08:07:10;;;;;;;343.25;323.90;;;11.80;99.90;;;;;;5033698;28;20049;-87
2024/02/15 08:09:39;;;;;;;339.65;320.75;;;11.80;99.90;;;;;;5033150;28;20041;-87
2024/02/15 08:12:05;;;;;;;250.38;236.73;;;11.90;99.90;;;;;;5026698;28;20029;-86
2024/02/15 08:14:31;;;;;;;345.35;324.95;;;12.00;99.90;;;;;;5016772;28;20053;-86
2024/02/15 08:16:57;;;;;;;317.80;299.02;;;12.10;99.90;;;;;;5032916;28;20037;-85
2024/02/15 08:19:24;;;;;;;276.02;260.77;;;12.20;99.90;;;;;;5031722;28;20030;-87
2024/02/15 08:21:50;;;;;;;286.75;270.35;;;12.60;99.90;;;;;;5033728;28;20041;-85
2024/02/15 08:24:16;;;;;;;203.80;193.23;;;12.80;99.90;;;;;;5032862;28;20061;-86
2024/02/15 08:26:42;;;;;;;224.52;212.23;;;12.90;99.90;;;;;;5033146;28;20048;-86
2024/02/15 08:29:13;;;;;;;284.13;268.50;;;13.00;99.90;;;;;;5032502;28;20746;-86
2024/02/15 08:31:41;;;;;;;225.98;213.73;;;13.10;99.90;;;;;;5033052;28;20042;-87
2024/02/15 08:34:10;;;;;;;1999.90;999.90;;;13.30;99.90;;;;;;5033533;28;20021;-86
2024/02/15 08:36:36;;;;;;;1999.90;999.90;;;13.60;99.90;;;;;;5033923;28;20049;-85
2024/02/15 08:39:04;;;;;;;1999.90;999.90;;;13.60;99.90;;;;;;5033172;28;20508;-87
2024/02/15 08:41:30;;;;;;;1999.90;999.90;;;13.70;99.90;;;;;;5032420;28;20061;-87
2024/02/15 08:44:01;;;;;;;1999.90;999.90;;;13.80;99.90;;;;;;5033477;28;20033;-87
2024/02/15 08:46:27;;;;;;;1999.90;999.90;;;13.90;99.90;;;;;;5032557;28;20037;-87
2024/02/15 08:48:56;;;;;;;1999.90;999.90;;;14.00;99.90;;;;;;5015850;28;20042;-86
2024/02/15 08:51:23;;;;;;;1999.90;999.90;;;14.00;99.90;;;;;;5030891;28;20046;-87
2024/02/15 08:53:49;;;;;;;1999.90;999.90;;;14.20;99.90;;;;;;5030393;28;20478;-79
2024/02/15 08:56:15;;;;;;;1999.90;999.90;;;14.20;99.90;;;;;;5031573;28;20036;-77
2024/02/15 08:58:42;;;;;;;1999.90;999.90;;;14.20;99.90;;;;;;5032585;28;20391;-78
2024/02/15 09:01:08;;;;;;;1999.90;999.90;;;14.20;99.90;;;;;;5032172;28;20045;-78
2024/02/15 09:03:34;;;;;;;1999.90;999.90;;;14.20;99.90;;;;;;5033508;28;20029;-78
2024/02/15 09:06:03;;;;;;;1999.90;999.90;;;14.20;99.90;;;;;;5031576;28;20041;-77
2024/02/15 09:08:30;;;;;;;1999.90;999.90;;;14.30;99.90;;;;;;5032904;28;20018;-78
2024/02/15 09:10:57;;;;;;;1999.90;999.90;;;14.40;99.90;;;;;;5032727;28;20048;-78
2024/02/15 09:13:24;;;;;;;1999.90;999.90;;;14.50;99.90;;;;;;5032294;28;20032;-77
2024/02/15 09:15:50;;;;;;;1999.90;999.90;;;14.80;99.90;;;;;;5032689;28;20029;-78
2024/02/15 09:18:17;;;;;;;1999.90;999.90;;;15.00;99.90;;;;;;5032007;28;20041;-77
2024/02/15 09:20:47;;;;;;;1999.90;999.90;;;15.20;99.90;;;;;;5032120;28;20495;-78
2024/02/15 09:23:14;;;;;;;1999.90;999.90;;;15.50;99.90;;;;;;5032472;28;20034;-78
2024/02/15 09:25:43;;;;;;;1999.90;999.90;;;15.70;99.90;;;;;;5032570;28;20442;-78
2024/02/15 09:28:09;;;;;;;1999.90;999.90;;;15.80;99.90;;;;;;5031330;28;20387;-78
2024/02/15 09:30:35;;;;;;;1999.90;999.90;;;15.90;99.90;;;;;;5032343;28;20029;-77
2024/02/15 09:33:04;;;;;;;1999.90;999.90;;;15.90;99.90;;;;;;5032784;28;20036;-78
2024/02/15 09:35:31;;;;;;;1999.90;999.90;;;15.80;99.90;;;;;;5032475;28;20037;-77
2024/02/15 09:37:57;;;;;;;1999.90;999.90;;;15.80;99.90;;;;;;5031467;28;20029;-78
2024/02/15 09:40:28;;;;;;;1999.90;999.90;;;15.90;99.90;;;;;;5031230;28;20486;-78
2024/02/15 09:42:54;;;;;;;1999.90;999.90;;;16.00;99.90;;;;;;5032687;28;20037;-78
2024/02/15 09:45:21;;;;;;;1999.90;999.90;;;16.10;99.90;;;;;;5031235;28;20482;-78
2024/02/15 09:47:50;;;;;;;1999.90;999.90;;;16.20;99.90;;;;;;5031606;28;20034;-78
2024/02/15 09:50:17;;;;;;;1999.90;999.90;;;16.30;99.90;;;;;;5031955;28;20035;-78
2024/02/15 09:52:45;;;;;;;1999.90;999.90;;;16.30;99.90;;;;;;5014738;28;20044;-78
2024/02/15 09:55:14;;;;;;;1999.90;999.90;;;16.40;99.90;;;;;;5032140;28;20029;-78
2024/02/15 09:57:44;;;;;;;1999.90;999.90;;;16.40;99.90;;;;;;5032471;28;20025;-78
2024/02/15 10:00:15;;;;;;;1999.90;999.90;;;16.60;99.90;;;;;;5030666;28;20042;-78
2024/02/15 10:02:44;;;;;;;1999.90;999.90;;;16.60;99.90;;;;;;5012788;28;20041;-78
2024/02/15 10:05:13;;;;;;;1999.90;999.90;;;16.70;99.90;;;;;;5027141;28;20057;-78
2024/02/15 10:07:46;;;;;;;1999.90;999.90;;;16.70;99.90;;;;;;5030393;28;20497;-78
2024/02/15 10:10:16;;;;;;;1999.90;999.90;;;16.80;99.90;;;;;;5032051;28;20030;-79
2024/02/15 10:12:43;;;;;;;1999.90;999.90;;;16.90;99.90;;;;;;5032390;28;20051;-78
2024/02/15 10:15:09;;;;;;;1999.90;999.90;;;16.90;99.90;;;;;;5031654;28;20064;-78
2024/02/15 10:17:36;;;;;;;1999.90;999.90;;;16.90;99.90;;;;;;5032049;28;20569;-79
2024/02/15 10:20:03;;;;;;;1999.90;999.90;;;16.80;99.90;;;;;;5031539;28;20052;-79
2024/02/15 10:22:29;;;;;;;1999.90;999.90;;;16.80;99.90;;;;;;5031776;28;20056;-78
2024/02/15 10:25:14;;;;;;;1999.90;999.90;;;16.80;99.90;;;;;;5031586;28;20041;-79
2024/02/15 10:27:40;;;;;;;1999.90;999.90;;;16.90;99.90;;;;;;5011409;28;20036;-79
2024/02/15 10:30:19;;;;;;;1999.90;999.90;;;17.00;99.90;;;;;;5009840;28;20487;-78
2024/02/15 10:32:46;;;;;;;1999.90;999.90;;;17.10;99.90;;;;;;5010861;28;20042;-78
2024/02/15 10:35:24;;;;;;;1999.90;999.90;;;17.10;99.90;;;;;;5028455;28;20495;-78
2024/02/15 10:37:50;;;;;;;1999.90;999.90;;;17.20;99.90;;;;;;5031539;28;20048;-78
2024/02/15 10:40:20;;;;;;;1999.90;999.90;;;17.30;99.90;;;;;;5034115;28;20038;-79
2024/02/15 10:42:51;;;;;;;1999.90;999.90;;;17.30;99.90;;;;;;5035759;28;20041;-78
2024/02/15 10:45:20;;;;;;;1999.90;999.90;;;17.50;99.90;;;;;;5034419;28;20049;-79
2024/02/15 10:47:49;;;;;;;1999.90;999.90;;;17.60;99.90;;;;;;5034495;28;20045;-78
2024/02/15 10:50:16;;;;;;;1999.90;999.90;;;17.50;99.90;;;;;;5035416;28;20025;-79
2024/02/15 10:52:55;;;;;;;1999.90;999.90;;;17.50;99.90;;;;;;5036014;28;20446;-79
2024/02/15 10:55:38;;;;;;;1999.90;999.90;;;17.50;99.90;;;;;;5035271;28;20060;-79
2024/02/15 10:58:05;;;;;;;1999.90;999.90;;;17.40;99.90;;;;;;5019535;28;20042;-79
2024/02/15 11:00:37;;;;;;;1999.90;999.90;;;17.30;99.90;;;;;;5035150;28;20038;-79
2024/02/15 11:03:07;;;;;;;1999.90;999.90;;;17.30;99.90;;;;;;5016038;28;20430;-79
2024/02/15 11:05:35;;;;;;;1999.90;999.90;;;17.20;99.90;;;;;;5018572;28;20042;-79
2024/02/15 11:08:03;;;;;;;1999.90;999.90;;;17.20;99.90;;;;;;5035827;28;20048;-78
2024/02/15 11:10:30;;;;;;;1999.90;999.90;;;17.20;99.90;;;;;;5033782;28;20045;-79
2024/02/15 11:12:58;;;;;;;1999.90;999.90;;;17.30;99.90;;;;;;5033438;28;20068;-79
2024/02/15 11:15:41;;;;;;;1999.90;999.90;;;17.60;99.90;;;;;;5034918;28;20104;-79
2024/02/15 11:18:07;;;;;;;1999.90;999.90;;;17.80;99.90;;;;;;5035222;28;20045;-79
2024/02/15 11:20:34;;;;;;;1999.90;999.90;;;17.80;99.90;;;;;;5035303;28;20410;-78
2024/02/15 11:23:01;;;;;;;1999.90;999.90;;;17.80;99.90;;;;;;5035162;28;20042;-79
2024/02/15 11:25:37;;;;;;;1999.90;999.90;;;17.80;99.90;;;;;;5034870;28;20052;-78
2024/02/15 11:28:21;;;;;;;1999.90;999.90;;;17.80;99.90;;;;;;5035418;28;20033;-79
2024/02/15 11:30:51;;;;;;;1999.90;999.90;;;17.90;99.90;;;;;;5034044;28;20038;-79
2024/02/15 11:33:35;;;;;;;1999.90;999.90;;;17.90;99.90;;;;;;5033621;28;20044;-79
2024/02/15 11:36:02;;;;;;;1999.90;999.90;;;17.90;99.90;;;;;;5034969;28;20025;-79
2024/02/15 11:38:28;;;;;;;1999.90;999.90;;;17.90;99.90;;;;;;5035400;28;20033;-79
2024/02/15 11:40:55;;;;;;;1999.90;999.90;;;18.10;99.90;;;;;;5016353;28;20033;-79
2024/02/15 11:44:01;;;;;;;1999.90;999.90;;;18.20;99.90;;;;;;5034888;28;20045;-78
2024/02/15 11:46:30;;;;;;;1999.90;999.90;;;18.40;99.90;;;;;;5022765;28;20499;-78
2024/02/15 11:48:57;;;;;;;1999.90;999.90;;;18.40;99.90;;;;;;5033198;28;20053;-79
2024/02/15 11:51:30;;;;;;;1999.90;999.90;;;18.40;99.90;;;;;;5033453;28;20044;-78
2024/02/15 11:54:07;;;;;;;1999.90;999.90;;;18.40;99.90;;;;;;5034389;28;20050;-79
2024/02/15 11:57:04;;;;;;;1999.90;999.90;;;18.40;99.90;;;;;;5033114;28;20523;-79
2024/02/15 11:59:42;;;;;;;1999.90;999.90;;;18.40;99.90;;;;;;5033257;28;20390;-78
2024/02/15 12:18:46;;;;;;;1999.90;999.90;;;18.60;99.90;;;;;;5040886;28;20033;-78
2024/02/15 12:21:23;;;;;;;1999.90;999.90;;;18.60;99.90;;;;;;5032596;28;20022;-79
2024/02/15 12:23:52;;;;;;;1999.90;999.90;;;18.70;99.90;;;;;;5033355;28;20033;-78
2024/02/15 12:26:19;;;;;;;1999.90;999.90;;;18.70;99.90;;;;;;5033671;28;20398;-78
2024/02/15 12:28:57;;;;;;;1999.90;999.90;;;18.80;99.90;;;;;;5034182;28;20026;-79
2024/02/15 12:31:26;;;;;;;1999.90;999.90;;;18.80;99.90;;;;;;5032775;28;20029;-78
2024/02/15 12:34:07;;;;;;;1999.90;999.90;;;18.80;99.90;;;;;;5034227;28;20033;-79
2024/02/15 12:36:36;;;;;;;1999.90;999.90;;;18.80;99.90;;;;;;5033760;28;20466;-79
2024/02/15 12:39:10;;;;;;;1999.90;999.90;;;18.80;99.90;;;;;;5034284;28;20037;-79